Time;durP1;ratioP1;P1;durP2;ratioP2;P2;SDS_P1;SDS_P2;PMS_P1;PMS_P2;Temp;Humidity;BMP_temperature;BMP_pressure;BME280_temperature;BME280_humidity;BME280_pressure;Samples;Min_cycle;Max_cycle;Signal;HPM_P1;HPM_P2
2023/12/26 00:01:10;;;;;;;0.70;0.70;;;;;;;10.91;100.00;100329.81;4972672;28;20031;-86
2023/12/26 00:03:35;;;;;;;4.72;0.82;;;;;;;10.93;100.00;100330.56;4955974;28;20551;-84
2023/12/26 00:06:00;;;;;;;2.17;0.93;;;;;;;10.87;100.00;100329.25;4955663;28;20437;-84
2023/12/26 00:08:26;;;;;;;1.65;1.00;;;;;;;10.90;100.00;100326.19;4971389;28;20059;-84
2023/12/26 00:10:51;;;;;;;2.65;1.00;;;;;;;10.91;100.00;100338.03;4970996;28;20082;-84
2023/12/26 00:13:17;;;;;;;1.98;1.15;;;;;;;10.86;100.00;100330.22;4965302;28;20050;-84
2023/12/26 00:15:42;;;;;;;2.03;1.10;;;;;;;10.82;100.00;100324.16;4971451;28;20495;-84
2023/12/26 00:18:08;;;;;;;2.05;1.13;;;;;;;10.77;100.00;100317.34;4955763;28;20031;-84
2023/12/26 00:20:34;;;;;;;5.63;2.75;;;;;;;10.76;100.00;100321.09;4968942;28;20023;-85
2023/12/26 00:22:59;;;;;;;3.47;1.40;;;;;;;10.73;100.00;100319.50;4954159;28;20121;-84
2023/12/26 00:25:25;;;;;;;5.45;1.20;;;;;;;10.74;100.00;100329.47;4970113;28;20041;-84
2023/12/26 00:27:50;;;;;;;1.08;0.90;;;;;;;10.69;100.00;100319.91;4950702;28;20082;-84
2023/12/26 00:30:16;;;;;;;11.63;1.83;;;;;;;10.64;100.00;100310.25;4967655;28;20023;-85
2023/12/26 00:32:41;;;;;;;4.78;1.30;;;;;;;10.63;100.00;100324.91;4987814;28;20031;-84
2023/12/26 00:35:07;;;;;;;7.35;1.23;;;;;;;10.68;100.00;100329.13;4969428;28;20117;-84
2023/12/26 00:37:32;;;;;;;1.67;1.10;;;;;;;10.62;100.00;100330.53;4953295;28;20031;-84
2023/12/26 00:39:58;;;;;;;1.27;1.02;;;;;;;10.61;100.00;100310.50;4959000;28;20027;-83
2023/12/26 00:42:23;;;;;;;1.92;1.05;;;;;;;10.57;100.00;100317.25;4963430;28;20062;-85
2023/12/26 00:44:49;;;;;;;3.60;1.80;;;;;;;10.55;100.00;100321.13;4971493;28;20494;-84
2023/12/26 00:47:14;;;;;;;3.05;1.20;;;;;;;10.56;100.00;100315.53;4992693;28;20089;-85
2023/12/26 00:49:41;;;;;;;4.97;1.48;;;;;;;10.56;100.00;100322.84;4969615;28;20035;-84
2023/12/26 00:52:07;;;;;;;2.53;1.60;;;;;;;10.55;100.00;100329.34;4968863;28;20031;-85
2023/12/26 00:54:32;;;;;;;1.73;1.27;;;;;;;10.50;100.00;100313.31;4954761;28;20026;-84
2023/12/26 00:56:58;;;;;;;4.72;1.70;;;;;;;10.50;100.00;100324.25;4983021;28;20031;-85
2023/12/26 00:59:23;;;;;;;4.13;1.60;;;;;;;10.50;100.00;100328.88;4969383;28;20037;-84
2023/12/26 01:01:48;;;;;;;3.15;1.33;;;;;;;10.49;100.00;100322.50;4952760;28;20033;-85
2023/12/26 01:04:14;;;;;;;2.35;1.25;;;;;;;10.50;100.00;100326.16;4957486;28;20031;-85
2023/12/26 01:06:39;;;;;;;2.10;1.20;;;;;;;10.51;100.00;100333.34;4991681;28;20056;-85
2023/12/26 01:09:05;;;;;;;3.92;1.70;;;;;;;10.47;100.00;100330.00;4969106;28;20338;-85
2023/12/26 01:11:30;;;;;;;4.78;2.17;;;;;;;10.48;100.00;100346.28;4975349;28;20388;-85
2023/12/26 01:13:56;;;;;;;2.75;1.75;;;;;;;10.45;100.00;100335.59;4991531;28;20031;-86
2023/12/26 01:16:27;;;;;;;2.92;1.38;;;;;;;10.45;100.00;100340.22;4982505;28;20029;-87
2023/12/26 01:18:52;;;;;;;4.43;2.10;;;;;;;10.42;100.00;100338.59;4957265;28;20389;-87
2023/12/26 01:21:18;;;;;;;2.97;1.33;;;;;;;10.47;100.00;100339.06;4958359;28;20018;-86
2023/12/26 01:23:44;;;;;;;1.98;1.10;;;;;;;10.43;100.00;100342.25;4972444;28;20536;-86
2023/12/26 01:26:09;;;;;;;1.70;1.05;;;;;;;10.44;100.00;100347.53;4973753;28;20041;-87
2023/12/26 01:28:34;;;;;;;2.83;0.85;;;;;;;10.46;100.00;100353.78;4968692;28;20034;-87
2023/12/26 01:31:00;;;;;;;1.95;0.88;;;;;;;10.48;100.00;100349.03;4987052;28;20031;-87
2023/12/26 01:33:25;;;;;;;3.03;0.75;;;;;;;10.36;100.00;100344.59;4967472;28;20031;-87
2023/12/26 01:35:51;;;;;;;1.77;1.20;;;;;;;10.43;100.00;100351.31;4987883;28;20047;-86
2023/12/26 01:38:16;;;;;;;1.02;0.80;;;;;;;10.44;100.00;100369.44;4979205;28;20410;-87
2023/12/26 01:40:42;;;;;;;4.43;0.90;;;;;;;10.45;100.00;100365.72;4979774;28;20420;-85
2023/12/26 01:43:07;;;;;;;0.68;0.60;;;;;;;10.44;100.00;100363.97;4959192;28;20047;-86
2023/12/26 01:45:33;;;;;;;2.30;0.75;;;;;;;10.42;100.00;100363.25;4973229;28;20082;-86
2023/12/26 01:48:00;;;;;;;2.45;1.00;;;;;;;10.43;100.00;100365.00;4978452;28;20081;-86
2023/12/26 01:50:26;;;;;;;0.60;0.60;;;;;;;10.42;100.00;100370.59;4982493;28;20042;-87
2023/12/26 01:52:52;;;;;;;2.45;0.73;;;;;;;10.46;100.00;100372.94;4974994;28;20026;-86
2023/12/26 01:55:19;;;;;;;0.70;0.70;;;;;;;10.44;100.00;100380.38;4942528;28;20038;-87
2023/12/26 01:57:45;;;;;;;0.93;0.82;;;;;;;10.39;100.00;100390.00;4959598;28;20031;-86
2023/12/26 02:00:11;;;;;;;0.65;0.60;;;;;;;10.38;100.00;100389.16;4968807;28;20102;-86
2023/12/26 02:02:39;;;;;;;1.95;0.68;;;;;;;10.38;100.00;100393.75;4988519;28;20030;-86
2023/12/26 02:05:05;;;;;;;2.85;0.90;;;;;;;10.38;100.00;100391.88;4965050;28;20030;-86
2023/12/26 02:07:31;;;;;;;0.68;0.60;;;;;;;10.40;100.00;100389.88;4955832;28;20030;-86
2023/12/26 02:09:56;;;;;;;1.02;0.93;;;;;;;10.42;100.00;100389.75;4991224;28;20034;-86
2023/12/26 02:12:22;;;;;;;3.92;0.80;;;;;;;10.37;100.00;100387.41;4967748;28;20042;-87
2023/12/26 02:14:48;;;;;;;0.82;0.82;;;;;;;10.40;100.00;100403.56;4970368;28;20125;-87
2023/12/26 02:17:22;;;;;;;1.55;0.90;;;;;;;10.38;100.00;100394.63;4994994;28;20046;-86
2023/12/26 02:19:48;;;;;;;0.68;0.68;;;;;;;10.38;100.00;100399.22;4972216;28;20034;-87
2023/12/26 02:22:13;;;;;;;1.08;0.70;;;;;;;10.38;100.00;100402.84;4974923;28;20117;-87
2023/12/26 02:24:42;;;;;;;0.77;0.70;;;;;;;10.43;100.00;100402.44;4981127;28;20030;-86
2023/12/26 02:27:24;;;;;;;3.13;0.70;;;;;;;10.38;100.00;100413.78;4959011;28;20110;-87
2023/12/26 02:29:52;;;;;;;1.05;0.63;;;;;;;10.37;100.00;100412.03;4976250;28;20030;-86
2023/12/26 02:32:23;;;;;;;0.88;0.60;;;;;;;10.35;100.00;100425.00;4969714;28;20159;-86
2023/12/26 02:34:50;;;;;;;1.80;0.80;;;;;;;10.36;100.00;100413.03;4958382;28;20030;-87
2023/12/26 02:37:16;;;;;;;1.02;0.70;;;;;;;10.41;100.00;100419.00;5006049;28;20034;-86
2023/12/26 02:39:43;;;;;;;1.63;0.70;;;;;;;10.44;100.00;100421.44;4974786;28;20548;-87
2023/12/26 02:42:11;;;;;;;5.78;0.80;;;;;;;10.39;100.00;100415.50;4967644;28;20062;-86
2023/12/26 02:44:36;;;;;;;1.98;0.80;;;;;;;10.37;100.00;100414.78;4978726;28;20027;-86
2023/12/26 02:47:02;;;;;;;1.95;0.60;;;;;;;10.38;100.00;100413.78;4990182;28;20027;-86
2023/12/26 02:49:27;;;;;;;0.40;0.40;;;;;;;10.39;100.00;100420.13;4981003;28;20523;-86
2023/12/26 02:51:53;;;;;;;1.45;0.60;;;;;;;10.36;100.00;100421.22;4976380;28;20400;-86
2023/12/26 02:54:18;;;;;;;0.60;0.60;;;;;;;10.32;100.00;100419.78;4955952;28;20031;-87
2023/12/26 02:56:44;;;;;;;0.82;0.68;;;;;;;10.30;100.00;100413.53;4989964;28;20030;-86
2023/12/26 02:59:09;;;;;;;1.42;0.60;;;;;;;10.31;100.00;100415.25;4991127;28;20133;-86
2023/12/26 03:01:35;;;;;;;1.23;0.60;;;;;;;10.29;100.00;100412.66;4993067;28;20031;-86
2023/12/26 03:04:00;;;;;;;0.77;0.43;;;;;;;10.30;100.00;100417.13;4957693;28;20022;-87
2023/12/26 03:06:25;;;;;;;1.67;0.82;;;;;;;10.32;100.00;100421.63;4974335;28;20499;-87
2023/12/26 03:08:51;;;;;;;2.05;0.65;;;;;;;10.27;100.00;100424.75;4972570;28;20631;-86
2023/12/26 03:11:16;;;;;;;1.95;0.65;;;;;;;10.32;100.00;100427.97;4952616;28;20319;-87
2023/12/26 03:13:42;;;;;;;0.50;0.50;;;;;;;10.26;100.00;100418.41;4973048;28;20031;-86
2023/12/26 03:16:07;;;;;;;0.55;0.52;;;;;;;10.33;100.00;100428.84;4956935;28;20035;-86
2023/12/26 03:18:32;;;;;;;0.60;0.60;;;;;;;10.32;100.00;100417.03;4941355;28;20035;-86
2023/12/26 03:20:58;;;;;;;0.77;0.52;;;;;;;10.30;100.00;100428.06;4989344;28;20023;-87
2023/12/26 03:23:23;;;;;;;1.77;0.68;;;;;;;10.36;100.00;100434.06;4989324;28;20050;-86
2023/12/26 03:25:49;;;;;;;0.95;0.70;;;;;;;10.33;100.00;100437.06;4973560;28;20027;-87
2023/12/26 03:28:14;;;;;;;2.58;0.80;;;;;;;10.31;100.00;100439.88;4973405;28;20031;-87
2023/12/26 03:30:39;;;;;;;1.90;1.00;;;;;;;10.32;100.00;100435.31;4973473;28;20110;-86
2023/12/26 03:33:06;;;;;;;1.13;0.90;;;;;;;10.32;100.00;100447.13;4989240;28;20381;-86
2023/12/26 03:35:31;;;;;;;1.40;1.10;;;;;;;10.39;100.00;100431.06;4994292;28;20080;-86
2023/12/26 03:37:57;;;;;;;1.85;1.38;;;;;;;10.40;100.00;100444.63;4959268;28;20034;-87
2023/12/26 03:40:22;;;;;;;1.23;1.13;;;;;;;10.39;100.00;100461.16;4993270;28;20166;-86
2023/12/26 03:42:47;;;;;;;2.85;1.38;;;;;;;10.38;100.00;100463.03;4953795;28;20059;-86
2023/12/26 03:45:13;;;;;;;3.03;1.70;;;;;;;10.37;100.00;100466.78;4956885;28;20039;-86
2023/12/26 03:47:38;;;;;;;2.10;1.90;;;;;;;10.33;100.00;100453.47;4979085;28;20050;-86
2023/12/26 03:50:07;;;;;;;3.63;1.90;;;;;;;10.34;100.00;100460.69;4961957;28;20481;-86
2023/12/26 03:52:33;;;;;;;5.95;2.60;;;;;;;10.30;100.00;100460.06;4979567;28;20516;-87
2023/12/26 03:55:00;;;;;;;3.33;2.47;;;;;;;10.28;100.00;100459.28;4987699;28;20105;-87
2023/12/26 03:57:25;;;;;;;9.57;2.80;;;;;;;10.33;100.00;100461.69;4956228;28;20022;-87
2023/12/26 03:59:51;;;;;;;5.88;2.72;;;;;;;10.30;100.00;100460.06;4958924;28;20481;-87
2023/12/26 04:02:16;;;;;;;3.33;2.40;;;;;;;10.21;100.00;100458.09;4985639;28;20031;-87
2023/12/26 04:04:42;;;;;;;4.75;2.55;;;;;;;10.30;100.00;100465.53;4989530;28;20023;-86
2023/12/26 04:07:08;;;;;;;4.68;2.30;;;;;;;10.27;100.00;100476.72;4972159;28;20455;-86
2023/12/26 04:09:33;;;;;;;4.97;1.98;;;;;;;10.34;100.00;100480.69;4943441;28;20038;-87
2023/12/26 04:11:59;;;;;;;2.97;2.08;;;;;;;10.27;100.00;100483.06;4978515;28;20027;-87
2023/12/26 04:14:24;;;;;;;8.05;2.17;;;;;;;10.32;100.00;100490.03;4959205;28;20073;-87
2023/12/26 04:16:50;;;;;;;4.00;2.13;;;;;;;10.27;100.00;100488.53;4977083;28;20030;-86
2023/12/26 04:19:16;;;;;;;8.88;2.38;;;;;;;10.34;100.00;100490.78;4995021;28;20475;-87
2023/12/26 04:21:41;;;;;;;3.17;2.08;;;;;;;10.28;100.00;100489.38;4971921;28;20046;-87
2023/12/26 04:24:06;;;;;;;5.18;1.92;;;;;;;10.19;100.00;100503.88;4985073;28;20110;-87
2023/12/26 04:26:32;;;;;;;5.13;2.10;;;;;;;10.23;100.00;100499.84;4972394;28;20481;-87
2023/12/26 04:28:57;;;;;;;4.75;1.90;;;;;;;10.24;100.00;100498.88;4956534;28;20109;-87
2023/12/26 04:31:23;;;;;;;5.45;2.50;;;;;;;10.21;100.00;100493.66;4972511;28;20027;-87
2023/12/26 04:33:48;;;;;;;6.95;2.28;;;;;;;10.23;100.00;100513.53;4969220;28;20031;-87
2023/12/26 04:36:14;;;;;;;10.30;2.83;;;;;;;10.25;100.00;100514.31;4973834;28;20037;-87
2023/12/26 04:38:39;;;;;;;7.22;2.60;;;;;;;10.20;100.00;100514.69;4961204;28;20035;-87
2023/12/26 04:41:12;;;;;;;7.53;2.63;;;;;;;10.26;100.00;100524.22;4974289;28;20019;-87
2023/12/26 04:43:38;;;;;;;5.53;2.30;;;;;;;10.21;100.00;100531.94;4994858;28;20460;-87
2023/12/26 04:46:04;;;;;;;13.23;3.63;;;;;;;10.16;100.00;100534.22;4991853;28;20038;-87
2023/12/26 04:48:29;;;;;;;5.50;2.42;;;;;;;10.19;100.00;100531.22;4961958;28;20030;-87
2023/12/26 04:50:55;;;;;;;8.13;2.72;;;;;;;10.25;100.00;100533.47;4967373;28;20050;-87
2023/12/26 04:53:20;;;;;;;11.90;2.75;;;;;;;10.21;100.00;100521.88;4975973;28;20481;-87
2023/12/26 04:55:46;;;;;;;6.20;3.08;;;;;;;10.20;100.00;100532.94;4976226;28;20023;-86
2023/12/26 04:58:12;;;;;;;5.80;2.25;;;;;;;10.23;100.00;100532.69;4976800;28;20035;-87
2023/12/26 05:00:37;;;;;;;7.53;2.30;;;;;;;10.20;100.00;100532.94;4976470;28;20098;-86
2023/12/26 05:03:03;;;;;;;11.65;2.17;;;;;;;10.18;100.00;100537.69;4959768;28;20475;-87
2023/12/26 05:05:28;;;;;;;8.32;1.83;;;;;;;10.27;100.00;100545.13;4968605;28;20095;-87
2023/12/26 05:07:54;;;;;;;7.53;1.88;;;;;;;10.22;100.00;100541.91;4979010;28;20023;-87
2023/12/26 05:10:19;;;;;;;7.93;1.55;;;;;;;10.15;100.00;100568.91;4959770;28;20062;-87
2023/12/26 05:12:45;;;;;;;8.00;1.55;;;;;;;10.18;100.00;100578.72;4973434;28;20031;-86
2023/12/26 05:15:10;;;;;;;7.43;1.17;;;;;;;10.24;100.00;100572.75;4975557;28;20492;-87
2023/12/26 05:17:36;;;;;;;9.00;1.13;;;;;;;10.23;100.00;100585.56;4959687;28;20035;-87
2023/12/26 05:20:01;;;;;;;10.95;1.83;;;;;;;10.05;100.00;100587.03;4962803;28;20490;-87
2023/12/26 05:22:27;;;;;;;7.15;1.83;;;;;;;10.05;100.00;100593.41;4975299;28;20035;-86
2023/12/26 05:24:52;;;;;;;4.95;1.02;;;;;;;10.03;100.00;100581.69;4996390;28;20022;-87
2023/12/26 05:27:18;;;;;;;7.70;1.10;;;;;;;10.00;100.00;100587.44;4943604;28;20416;-87
2023/12/26 05:29:44;;;;;;;8.25;1.00;;;;;;;9.99;100.00;100596.63;4978670;28;20593;-87
2023/12/26 05:32:09;;;;;;;11.38;1.48;;;;;;;9.97;100.00;100604.09;4986842;28;20033;-87
2023/12/26 05:34:35;;;;;;;8.98;1.23;;;;;;;10.01;100.00;100605.59;4987314;28;20023;-87
2023/12/26 05:37:00;;;;;;;4.22;0.90;;;;;;;9.98;100.00;100604.97;4992165;28;20093;-87
2023/12/26 05:39:25;;;;;;;8.23;1.10;;;;;;;9.94;100.00;100610.69;4978342;28;20094;-87
2023/12/26 05:41:51;;;;;;;10.75;1.17;;;;;;;9.97;100.00;100614.16;4995105;28;20051;-86
2023/12/26 05:44:16;;;;;;;10.88;1.33;;;;;;;9.95;100.00;100625.22;4982374;28;20038;-87
2023/12/26 05:46:43;;;;;;;12.02;1.50;;;;;;;9.89;100.00;100632.06;4991265;28;20033;-87
2023/12/26 05:49:09;;;;;;;9.93;1.25;;;;;;;9.85;100.00;100632.41;4980271;28;20022;-87
2023/12/26 05:51:34;;;;;;;12.80;1.40;;;;;;;9.84;100.00;100644.34;4991139;28;20027;-85
2023/12/26 05:53:59;;;;;;;8.55;1.20;;;;;;;9.87;100.00;100641.38;4999600;28;20559;-87
2023/12/26 05:56:25;;;;;;;9.38;1.23;;;;;;;9.82;100.00;100647.22;4981628;28;20092;-87
2023/12/26 05:58:50;;;;;;;10.95;1.17;;;;;;;9.76;100.00;100653.19;4959443;28;20046;-88
2023/12/26 06:01:16;;;;;;;8.27;1.05;;;;;;;9.74;100.00;100660.63;4981401;28;20383;-87
2023/12/26 06:03:41;;;;;;;11.68;0.90;;;;;;;9.74;100.00;100671.56;4966586;28;20472;-87
2023/12/26 06:06:14;;;;;;;8.10;1.70;;;;;;;9.66;100.00;100674.03;4981483;28;20211;-87
2023/12/26 06:08:40;;;;;;;;;;;;;;;9.63;100.00;100675.13;4963722;28;20027;-85
2023/12/26 06:11:05;;;;;;;10.23;0.98;;;;;;;9.59;100.00;100673.63;4992578;28;19918;-87
2023/12/26 06:13:31;;;;;;;6.85;1.27;;;;;;;9.57;100.00;100679.22;4990838;28;20093;-87
2023/12/26 06:15:56;;;;;;;12.00;2.10;;;;;;;9.51;100.00;100673.34;4959346;28;20187;-87
2023/12/26 06:18:22;;;;;;;13.63;2.22;;;;;;;9.39;100.00;100694.31;4957060;28;20035;-87
2023/12/26 06:20:47;;;;;;;13.38;1.40;;;;;;;9.45;100.00;100692.97;4998376;28;20062;-86
2023/12/26 06:23:13;;;;;;;6.32;0.80;;;;;;;9.49;100.00;100699.94;4968766;28;20100;-86
2023/12/26 06:25:38;;;;;;;7.93;1.77;;;;;;;9.40;100.00;100711.59;4969453;28;20035;-86
2023/12/26 06:28:04;;;;;;;6.30;1.08;;;;;;;9.31;100.00;100713.16;4959115;28;20022;-87
2023/12/26 06:30:29;;;;;;;10.93;1.10;;;;;;;9.37;100.00;100713.53;4957957;28;20493;-87
2023/12/26 06:32:56;;;;;;;11.27;1.20;;;;;;;9.30;100.00;100722.34;4973069;28;20035;-87
2023/12/26 06:35:21;;;;;;;11.48;0.90;;;;;;;9.23;100.00;100724.69;4968483;28;20542;-86
2023/12/26 06:37:46;;;;;;;7.57;1.38;;;;;;;9.23;100.00;100731.97;4958359;28;20023;-86
2023/12/26 06:40:12;;;;;;;6.28;1.75;;;;;;;9.22;100.00;100738.44;4972273;28;20038;-87
2023/12/26 06:42:37;;;;;;;7.05;1.10;;;;;;;9.10;100.00;100734.75;4971990;28;20098;-87
2023/12/26 06:45:03;;;;;;;17.33;1.30;;;;;;;9.11;100.00;100747.44;4990726;28;20126;-87
2023/12/26 06:47:28;;;;;;;7.55;0.80;;;;;;;9.02;100.00;100757.19;4999419;28;20118;-86
2023/12/26 06:49:54;;;;;;;9.13;1.08;;;;;;;8.97;100.00;100757.53;4987837;28;20469;-88
2023/12/26 06:52:19;;;;;;;8.77;1.00;;;;;;;8.94;100.00;100765.94;4979857;28;20030;-86
2023/12/26 06:54:45;;;;;;;10.15;1.00;;;;;;;8.93;100.00;100766.06;4974600;28;20033;-87
2023/12/26 06:57:15;;;;;;;5.82;0.88;;;;;;;8.79;100.00;100764.34;4957691;28;20031;-86
2023/12/26 06:59:48;;;;;;;12.90;0.95;;;;;;;8.76;100.00;100759.97;4976851;28;20511;-86
2023/12/26 07:02:14;;;;;;;11.95;0.90;;;;;;;8.82;100.00;100766.84;4967995;28;20019;-86
2023/12/26 07:04:41;;;;;;;8.32;0.88;;;;;;;8.71;100.00;100770.38;4974818;28;20023;-85
2023/12/26 07:07:07;;;;;;;8.15;0.80;;;;;;;8.67;100.00;100779.75;4976710;28;20059;-86
2023/12/26 07:09:32;;;;;;;7.85;0.70;;;;;;;8.65;100.00;100782.59;4985686;28;20073;-87
2023/12/26 07:11:58;;;;;;;15.00;1.65;;;;;;;8.69;100.00;100782.38;4962169;28;20033;-86
2023/12/26 07:14:23;;;;;;;6.35;1.00;;;;;;;8.73;100.00;100789.38;4958133;28;20031;-86
2023/12/26 07:16:49;;;;;;;12.73;1.25;;;;;;;8.69;100.00;100796.00;4973223;28;20027;-86
2023/12/26 07:19:14;;;;;;;8.80;1.25;;;;;;;8.68;100.00;100813.41;4976830;28;20037;-86
2023/12/26 07:21:43;;;;;;;6.43;0.77;;;;;;;8.68;100.00;100808.81;4991093;28;20046;-86
2023/12/26 07:24:09;;;;;;;14.68;1.13;;;;;;;8.62;100.00;100822.88;4975402;28;20019;-88
2023/12/26 07:26:34;;;;;;;10.60;1.05;;;;;;;8.63;100.00;100832.81;4983618;28;20023;-87
2023/12/26 07:29:00;;;;;;;9.43;0.98;;;;;;;8.61;100.00;100840.25;4973916;28;20114;-87
2023/12/26 07:31:28;;;;;;;7.75;1.23;;;;;;;8.57;100.00;100839.56;4941652;28;20034;-88
2023/12/26 07:33:53;;;;;;;7.85;1.17;;;;;;;8.61;100.00;100854.78;4973764;28;20105;-88
2023/12/26 07:36:20;;;;;;;7.30;0.85;;;;;;;8.51;100.00;100852.78;4978401;28;20562;-88
2023/12/26 07:38:45;;;;;;;11.18;1.00;;;;;;;8.50;100.00;100857.38;4979110;28;20161;-87
2023/12/26 07:41:11;;;;;;;6.45;0.90;;;;;;;8.63;100.00;100860.13;4976296;28;20118;-88
2023/12/26 07:43:36;;;;;;;19.90;2.22;;;;;;;8.49;100.00;100849.31;4957727;28;20065;-88
2023/12/26 07:46:02;;;;;;;10.48;0.82;;;;;;;8.49;100.00;100852.88;4955662;28;20048;-88
2023/12/26 07:48:28;;;;;;;10.20;1.08;;;;;;;8.48;100.00;100856.63;4971340;28;20035;-88
2023/12/26 07:50:53;;;;;;;19.55;1.55;;;;;;;8.50;100.00;100857.38;4966788;28;20093;-88
2023/12/26 07:53:19;;;;;;;13.88;1.00;;;;;;;8.43;100.00;100859.66;4952829;28;20059;-88
2023/12/26 07:55:44;;;;;;;14.00;1.25;;;;;;;8.46;100.00;100862.19;4970364;28;20043;-88
2023/12/26 07:58:10;;;;;;;9.93;1.00;;;;;;;8.54;100.00;100875.25;4954621;28;20078;-88
2023/12/26 08:00:35;;;;;;;10.07;1.23;;;;;;;8.46;100.00;100878.56;4990227;28;20058;-88
2023/12/26 08:03:01;;;;;;;5.43;0.93;;;;;;;8.36;100.00;100880.16;4968470;28;20031;-88
2023/12/26 08:05:26;;;;;;;5.97;0.93;;;;;;;8.39;100.00;100887.25;4979036;28;20129;-88
2023/12/26 08:07:52;;;;;;;14.07;2.35;;;;;;;8.44;100.00;100894.16;4957041;28;20026;-88
2023/12/26 08:10:17;;;;;;;7.75;0.80;;;;;;;8.48;100.00;100899.38;4988494;28;20038;-87
2023/12/26 08:12:43;;;;;;;12.07;1.10;;;;;;;8.52;100.00;100917.31;4989595;28;20033;-87
2023/12/26 08:15:11;;;;;;;10.48;1.77;;;;;;;8.50;100.00;100919.28;4983430;28;20039;-87
2023/12/26 08:17:37;;;;;;;8.50;1.40;;;;;;;8.55;100.00;100917.09;4957979;28;20038;-88
2023/12/26 08:20:03;;;;;;;10.45;1.17;;;;;;;8.65;100.00;100923.66;4956754;28;20022;-87
2023/12/26 08:22:29;;;;;;;13.93;1.33;;;;;;;8.58;100.00;100917.75;4989317;28;20499;-88
2023/12/26 08:24:54;;;;;;;15.60;1.33;;;;;;;8.60;100.00;100926.69;4948844;28;20019;-88
2023/12/26 08:27:22;;;;;;;15.40;0.93;;;;;;;8.53;100.00;100919.06;4969319;28;20502;-87
2023/12/26 08:29:47;;;;;;;17.35;1.00;;;;;;;8.55;100.00;100934.34;4980157;28;20025;-88
2023/12/26 08:32:13;;;;;;;15.57;2.13;;;;;;;8.59;100.00;100938.63;4963790;28;20031;-87
2023/12/26 08:34:38;;;;;;;12.25;1.08;;;;;;;8.55;100.00;100944.38;4962170;28;20415;-88
2023/12/26 08:37:04;;;;;;;12.27;1.38;;;;;;;8.49;100.00;100958.44;4975536;28;20031;-88
2023/12/26 08:39:29;;;;;;;16.95;1.40;;;;;;;8.54;100.00;100956.28;4949825;28;20125;-88
2023/12/26 08:41:54;;;;;;;9.90;1.30;;;;;;;8.48;100.00;100973.94;4977917;28;20054;-87
2023/12/26 08:44:20;;;;;;;12.25;1.10;;;;;;;8.40;100.00;100965.38;4973582;28;20034;-88
2023/12/26 08:46:45;;;;;;;11.23;1.05;;;;;;;8.29;100.00;100961.50;4972970;28;20031;-87
2023/12/26 08:49:11;;;;;;;20.92;1.33;;;;;;;8.30;100.00;100962.41;4964253;28;20042;-87
2023/12/26 08:51:38;;;;;;;10.18;2.35;;;;;;;8.36;100.00;100980.19;4994647;28;20031;-88
2023/12/26 08:54:04;;;;;;;8.70;1.23;;;;;;;8.36;100.00;100986.56;4965123;28;20078;-87
2023/12/26 08:56:29;;;;;;;19.55;2.95;;;;;;;8.38;100.00;100991.88;4971319;28;20039;-88
2023/12/26 08:58:55;;;;;;;8.48;1.40;;;;;;;8.39;100.00;100989.03;4954443;28;20485;-87
2023/12/26 09:01:20;;;;;;;17.55;1.45;;;;;;;8.40;100.00;100976.31;4939396;28;20019;-87
2023/12/26 09:03:45;;;;;;;12.80;1.38;;;;;;;8.40;100.00;100982.63;4962217;28;20045;-87
2023/12/26 09:06:11;;;;;;;16.60;1.27;;;;;;;8.44;100.00;100995.13;4988877;28;20026;-86
2023/12/26 09:08:37;;;;;;;9.02;1.20;;;;;;;8.44;100.00;100999.69;4954588;28;20027;-87
2023/12/26 09:11:03;;;;;;;19.90;1.35;;;;;;;8.50;100.00;101006.59;4984689;28;20552;-87
2023/12/26 09:13:29;;;;;;;11.63;1.35;;;;;;;8.50;100.00;101009.31;4972252;28;20539;-87
2023/12/26 09:15:58;;;;;;;10.10;1.27;;;;;;;8.53;100.00;101004.53;4981792;28;20023;-87
2023/12/26 09:18:23;;;;;;;13.18;1.23;;;;;;;8.56;100.00;101020.69;4966054;28;20091;-87
2023/12/26 09:20:49;;;;;;;17.73;1.70;;;;;;;8.70;100.00;101019.75;4968748;28;20552;-87
2023/12/26 09:23:14;;;;;;;15.38;1.63;;;;;;;8.80;100.00;101031.75;4975860;28;20572;-87
2023/12/26 09:25:40;;;;;;;12.07;1.60;;;;;;;8.91;100.00;101043.81;4987389;28;20023;-88
2023/12/26 09:28:08;;;;;;;12.40;1.92;;;;;;;9.06;100.00;101048.22;4969641;28;20030;-88
2023/12/26 09:30:34;;;;;;;10.95;1.42;;;;;;;9.09;100.00;101045.25;4986944;28;20439;-88
2023/12/26 09:32:59;;;;;;;11.70;1.30;;;;;;;9.17;100.00;101052.94;4987235;28;20066;-87
2023/12/26 09:35:25;;;;;;;12.00;1.40;;;;;;;9.25;100.00;101050.53;4992634;28;20039;-87
2023/12/26 09:37:50;;;;;;;19.45;1.50;;;;;;;9.26;100.00;101049.53;4975596;28;20023;-87
2023/12/26 09:40:16;;;;;;;15.95;1.98;;;;;;;9.20;100.00;101067.25;4958014;28;20038;-87
2023/12/26 09:42:41;;;;;;;16.77;1.95;;;;;;;9.19;100.00;101059.16;4969249;28;20138;-87
2023/12/26 09:45:10;;;;;;;20.02;2.03;;;;;;;9.15;100.00;101069.44;4968467;28;20026;-88
2023/12/26 09:47:38;;;;;;;15.20;1.85;;;;;;;9.09;100.00;101058.91;4978155;28;20034;-87
2023/12/26 09:50:04;;;;;;;13.88;1.77;;;;;;;9.21;100.00;101065.38;4959213;28;20030;-87
2023/12/26 09:52:31;;;;;;;14.35;1.90;;;;;;;9.23;100.00;101082.56;4963129;28;20085;-87
2023/12/26 09:54:58;;;;;;;8.13;1.10;;;;;;;9.07;100.00;101082.75;4977493;28;20023;-87
2023/12/26 09:57:23;;;;;;;11.07;1.30;;;;;;;8.99;100.00;101091.47;4983601;28;20034;-87
2023/12/26 09:59:50;;;;;;;19.45;2.38;;;;;;;8.90;100.00;101093.94;4972820;28;20034;-87
2023/12/26 10:02:16;;;;;;;19.20;1.50;;;;;;;8.81;100.00;101103.66;4966270;28;20022;-87
2023/12/26 10:04:42;;;;;;;16.77;1.30;;;;;;;8.80;100.00;101100.03;4991161;28;20508;-87
2023/12/26 10:07:09;;;;;;;10.65;2.13;;;;;;;8.80;100.00;101110.94;4959577;28;20384;-87
2023/12/26 10:09:35;;;;;;;10.93;1.20;;;;;;;8.79;100.00;101117.41;4976977;28;20023;-87
2023/12/26 10:12:00;;;;;;;13.20;1.40;;;;;;;8.77;100.00;101121.19;4963081;28;20174;-87
2023/12/26 10:14:28;;;;;;;19.23;2.30;;;;;;;8.67;100.00;101140.03;4942589;28;20026;-87
2023/12/26 10:16:55;;;;;;;14.23;2.17;;;;;;;8.72;100.00;101132.41;4990374;28;20689;-87
2023/12/26 10:19:21;;;;;;;13.65;1.55;;;;;;;8.61;100.00;101135.88;4990731;28;20030;-86
2023/12/26 10:21:46;;;;;;;11.38;1.50;;;;;;;8.81;100.00;101140.00;4974733;28;20077;-86
2023/12/26 10:24:12;;;;;;;17.17;1.20;;;;;;;8.91;100.00;101136.66;4974617;28;20034;-86
2023/12/26 10:26:37;;;;;;;11.27;1.25;;;;;;;9.23;100.00;101148.13;4992115;28;20177;-87
2023/12/26 10:29:03;;;;;;;17.67;1.40;;;;;;;9.19;100.00;101141.97;4996815;28;20481;-87
2023/12/26 10:31:28;;;;;;;14.48;1.73;;;;;;;9.33;100.00;101138.31;4957993;28;20124;-87
2023/12/26 10:33:54;;;;;;;10.10;1.75;;;;;;;9.53;100.00;101149.72;4973986;28;20023;-87
2023/12/26 10:36:19;;;;;;;11.23;1.25;;;;;;;9.68;100.00;101162.28;4974763;28;20034;-87
2023/12/26 10:38:45;;;;;;;13.95;1.38;;;;;;;9.62;100.00;101156.38;4974032;28;20477;-87
2023/12/26 10:41:24;;;;;;;13.73;1.40;;;;;;;9.44;100.00;101174.94;4963889;28;20057;-86
2023/12/26 10:43:49;;;;;;;15.73;1.33;;;;;;;9.36;100.00;101168.16;4967975;28;20078;-85
2023/12/26 10:46:17;;;;;;;11.85;1.60;;;;;;;9.58;100.00;101166.66;4970935;28;20065;-85
2023/12/26 10:48:45;;;;;;;8.75;1.30;;;;;;;9.68;100.00;101173.22;4962121;28;20101;-85
2023/12/26 10:51:14;;;;;;;8.93;1.10;;;;;;;9.83;100.00;101170.41;4971322;28;20033;-85
2023/12/26 10:54:08;;;;;;;12.98;2.08;;;;;;;9.85;100.00;101171.16;4967060;28;20030;-84
2023/12/26 10:56:34;;;;;;;8.80;2.05;;;;;;;9.82;100.00;101172.25;4966743;28;20393;-85
2023/12/26 10:59:01;;;;;;;13.73;1.40;;;;;;;9.88;100.00;101181.88;4969182;28;20444;-85
2023/12/26 13:53:33;;;;;;;10.60;1.73;;;;;;;9.38;100.00;101313.75;4970904;28;20085;-85
2023/12/26 13:56:36;;;;;;;11.15;1.20;;;;;;;9.33;100.00;101324.13;4988412;28;20033;-86
2023/12/26 13:59:39;;;;;;;14.68;1.27;;;;;;;9.33;100.00;101335.06;4974378;28;20030;-86
2023/12/26 14:02:42;;;;;;;9.07;2.00;;;;;;;9.30;100.00;101339.84;4982861;28;20046;-86
2023/12/26 14:05:46;;;;;;;10.68;1.45;;;;;;;9.32;100.00;101340.63;4959421;28;20031;-86
2023/12/26 14:08:30;;;;;;;;;;;;;;;9.28;100.00;101334.50;4967710;28;20500;-86